Aeroporto :
LOGIN :

Iscrizione | Disclaimer

   EN    FR    IT 

 










Sommario :    VFR   VFR Marginale   IFR   IFR Intensivo   IFR Molto Intensivo
Visibilità : 
Base nubi : 
>= 8 km
>= 3000ft
5 / 8 km
1000 / 3000 ft
1500m / 5 km
500 / 1000 ft
800 / 1500m
200 / 500 ft
< 800m
< 200 ft
Simboli :   Temporali  Nebbia  Neve Forte  Precipitazioni Forti  Vento > 20 kt
SIGMETs :   Varie  Temporali  Ghiacco  Turbolenza  Onda orograficha  Ceneri Vulcaniche






- Altitudine del aeroporto : 681 ft
- Codice IATA : LBA


EGNM - Leeds Bradford

ULTIMO METAR :
  • 061020Z 22014KT 9999 6000SW -SHRA SCT011 SCT016 11/09 Q0996

METARs OBSOLETI :
  • 060950Z 22014KT 9999 -SHRA FEW008 SCT011 BKN016 11/09 Q0997
  • 060920Z 22012KT 9999 -DZ FEW006 SCT008 BKN010 10/09 Q0997
  • 060850Z 22016KT 9000 -DZ FEW006 SCT008 BKN010 11/10 Q0997
  • 060820Z 22016KT 9999 -DZ SCT006 BKN008 10/09 Q0997
  • 060750Z 22016KT 9999 SCT005 BKN008 11/10 Q0997

TAF AMD TAF EGNM
Valido dal 06 a 09 ore il 07 a 06 ore UTC


060904Z 0609/0706 22012KT 9000 -DZ BKN010
BECMG 0609/0611 9999 SCT018
TEMPO 0609/0617 24015G25KT
TEMPO 0610/0616 7000 SHRA
PROB30
TEMPO 0611/0616 26020G35KT 4000 +SHRA BKN012
BECMG 0616/0619 28014KT
ATIS : +44 113 250 9696 (x2489)



MetMap, La meteo Aeronautica in un colpo d'occhio ! - Copyright ORBIFLY Dicembre 2007 - Disclaimer

ORBIFLY MET'MAP TEAM :

Programmazione e sviluppo : Alexandra Zaïnal
Concezione : Baudouin d'Aumeries
Aiuto per la programmazione : Marc-Olivier Méhu
Supporto tecnico e logistico : Manuel Goepfert
Aiuto per la traduzione : Arnaldo La Scala

Contatto : metmap@orbifly.com




FONTI E CREDITI :

   NOAA